LKL weather

Banak Airport
Lakselv, Finnmark, Norway

Public forecast

Using degrees Celsius for public forecast. Weather courtesy of forecast.io.

METAR (pilot weather report)

Retrieved 2019/05/19 11:20 UTC (30 minutes ago):

ENNA 191120Z 18011KT CAVOK 11/01 Q1023 RMK WIND 1800FT 15020KT

TAF (pilot weather forecast)

Retrieved 2019/05/19 06:57 UTC (5 hours ago):

TAF TAF ENNA 190500Z 1906/2006 18012KT 9999 BKN025